Time;durP1;ratioP1;P1;durP2;ratioP2;P2;SDS_P1;SDS_P2;PMS_P1;PMS_P2;Temp;Humidity;BMP_temperature;BMP_pressure;BME280_temperature;BME280_humidity;BME280_pressure;Samples;Min_cycle;Max_cycle;Signal;HPM_P1;HPM_P2
2021/07/30 00:00:35;;;;;;;6.45;3.38;;;18.50;97.30;;;;;;5042215;28;20442;-78
2021/07/30 00:03:03;;;;;;;5.55;3.10;;;18.50;97.30;;;;;;5034839;28;20132;-80
2021/07/30 00:05:30;;;;;;;5.25;3.38;;;18.40;97.40;;;;;;5042722;28;20085;-79
2021/07/30 00:07:57;;;;;;;4.85;3.13;;;18.40;97.50;;;;;;5032504;28;20111;-80
2021/07/30 00:10:24;;;;;;;6.30;3.33;;;18.40;97.80;;;;;;5040781;28;20049;-79
2021/07/30 00:12:55;;;;;;;6.63;3.50;;;18.30;97.70;;;;;;5024156;28;20050;-79
2021/07/30 00:15:23;;;;;;;8.48;3.95;;;18.30;97.90;;;;;;5023640;28;20049;-79
2021/07/30 00:17:51;;;;;;;7.07;3.58;;;18.40;98.00;;;;;;5029966;28;20049;-81
2021/07/30 00:20:20;;;;;;;7.93;4.63;;;18.30;97.90;;;;;;5019497;28;20053;-78
2021/07/30 00:22:47;;;;;;;8.82;4.80;;;18.30;98.10;;;;;;5025031;28;20048;-79
2021/07/30 00:25:14;;;;;;;5.43;3.75;;;18.30;98.00;;;;;;5023994;28;20048;-77
2021/07/30 00:27:42;;;;;;;6.32;3.40;;;18.30;97.80;;;;;;5027949;28;20049;-80
2021/07/30 00:30:10;;;;;;;5.80;3.08;;;18.20;97.80;;;;;;5025864;28;20479;-80
2021/07/30 00:32:38;;;;;;;5.38;3.28;;;18.20;98.10;;;;;;5020490;28;20046;-79
2021/07/30 00:35:06;;;;;;;7.20;3.60;;;18.20;98.10;;;;;;5025306;28;20160;-80
2021/07/30 00:37:35;;;;;;;5.50;3.47;;;18.10;98.00;;;;;;5022148;28;20045;-80
2021/07/30 00:40:02;;;;;;;6.35;3.28;;;18.10;98.00;;;;;;5022782;28;20475;-79
2021/07/30 00:42:31;;;;;;;5.65;3.50;;;18.00;98.20;;;;;;5030312;28;20463;-79
2021/07/30 00:44:59;;;;;;;6.43;3.20;;;17.90;98.30;;;;;;5022371;28;20491;-79
2021/07/30 00:47:26;;;;;;;5.43;3.22;;;17.80;98.60;;;;;;5023228;28;20050;-79
2021/07/30 00:49:55;;;;;;;4.80;3.00;;;17.80;98.90;;;;;;5020551;28;20521;-79
2021/07/30 00:52:22;;;;;;;5.30;3.10;;;17.80;99.00;;;;;;5025430;28;20050;-79
2021/07/30 00:54:50;;;;;;;4.72;3.08;;;17.90;99.00;;;;;;5020626;28;20060;-77
2021/07/30 00:57:17;;;;;;;5.57;3.30;;;17.90;99.10;;;;;;5023640;28;20483;-80
2021/07/30 00:59:45;;;;;;;5.72;3.65;;;17.90;99.10;;;;;;5026092;28;20049;-76
2021/07/30 01:02:13;;;;;;;6.32;3.33;;;17.90;99.10;;;;;;5025159;28;20140;-76
2021/07/30 01:04:40;;;;;;;5.07;3.20;;;17.90;99.10;;;;;;5016921;28;20049;-77
2021/07/30 01:07:07;;;;;;;5.30;3.47;;;17.90;99.10;;;;;;5019095;28;20052;-78
2021/07/30 01:09:34;;;;;;;7.15;3.35;;;17.90;99.10;;;;;;5029722;28;20046;-78
2021/07/30 01:12:03;;;;;;;5.88;3.50;;;17.90;99.10;;;;;;5022520;28;20049;-78
2021/07/30 01:14:30;;;;;;;5.85;3.33;;;17.90;99.10;;;;;;5025261;28;20048;-80
2021/07/30 01:16:57;;;;;;;6.82;3.38;;;18.00;99.10;;;;;;5026450;28;20053;-79
2021/07/30 01:19:25;;;;;;;6.07;3.40;;;18.00;99.00;;;;;;5026213;28;20045;-79
2021/07/30 01:21:54;;;;;;;6.50;3.63;;;18.00;98.90;;;;;;5027361;28;20048;-77
2021/07/30 01:24:25;;;;;;;5.65;3.58;;;18.00;98.90;;;;;;5030621;28;20127;-77
2021/07/30 01:26:54;;;;;;;5.70;3.30;;;17.90;98.80;;;;;;5020569;28;20057;-79
2021/07/30 01:29:21;;;;;;;5.90;3.55;;;17.90;99.00;;;;;;5038393;28;20056;-78
2021/07/30 01:31:49;;;;;;;5.00;3.38;;;17.90;99.00;;;;;;5033386;28;20483;-79
2021/07/30 01:34:16;;;;;;;6.20;3.88;;;17.90;99.10;;;;;;5029182;28;20483;-78
2021/07/30 01:36:43;;;;;;;5.78;3.40;;;17.80;98.70;;;;;;5014626;28;20133;-78
2021/07/30 01:39:10;;;;;;;5.68;3.85;;;17.70;98.80;;;;;;5021532;28;20472;-79
2021/07/30 01:41:39;;;;;;;6.63;4.15;;;17.60;99.30;;;;;;5021935;28;20042;-78
2021/07/30 01:44:06;;;;;;;6.00;3.88;;;17.50;98.80;;;;;;5021834;28;20080;-79
2021/07/30 01:46:33;;;;;;;5.35;3.75;;;17.30;99.10;;;;;;5021784;28;20041;-77
2021/07/30 01:49:00;;;;;;;6.40;3.70;;;17.20;99.50;;;;;;5022359;28;20058;-79
2021/07/30 01:51:27;;;;;;;5.70;3.50;;;17.10;99.70;;;;;;5038600;28;20120;-79
2021/07/30 01:53:54;;;;;;;7.07;4.43;;;17.10;99.90;;;;;;5031825;28;20046;-79
2021/07/30 01:56:21;;;;;;;6.70;4.00;;;17.00;99.90;;;;;;5025199;28;20063;-81
2021/07/30 01:58:50;;;;;;;5.97;3.97;;;17.00;99.90;;;;;;5021813;28;20048;-78
2021/07/30 02:01:17;;;;;;;6.45;4.13;;;16.90;99.90;;;;;;5029224;28;20050;-79
2021/07/30 02:03:44;;;;;;;6.45;3.85;;;16.90;99.90;;;;;;5015332;28;20491;-78
2021/07/30 02:06:11;;;;;;;5.00;3.35;;;16.90;99.90;;;;;;5024549;28;20049;-79
2021/07/30 02:08:38;;;;;;;5.47;3.30;;;16.90;99.90;;;;;;5026185;28;20051;-80
2021/07/30 02:11:09;;;;;;;5.82;3.30;;;16.90;99.90;;;;;;5019517;28;20050;-80
2021/07/30 02:16:22;;;;;;;7.03;3.60;;;16.90;99.90;;;;;;5032557;28;20578;-78
2021/07/30 02:18:49;;;;;;;5.20;3.10;;;17.00;99.90;;;;;;5039162;28;20077;-78
2021/07/30 02:21:17;;;;;;;5.20;3.45;;;17.00;99.90;;;;;;5024141;28;20649;-78
2021/07/30 02:23:45;;;;;;;6.45;3.80;;;17.10;99.90;;;;;;5019739;28;20129;-80
2021/07/30 02:26:12;;;;;;;6.90;4.07;;;17.10;99.90;;;;;;5014829;28;20459;-79
2021/07/30 02:28:41;;;;;;;6.72;4.35;;;17.10;99.90;;;;;;5029014;28;20129;-79
2021/07/30 02:31:08;;;;;;;6.45;3.70;;;17.00;99.90;;;;;;5024402;28;20402;-79
2021/07/30 02:33:37;;;;;;;6.40;3.63;;;17.00;99.90;;;;;;5022634;28;20069;-80
2021/07/30 02:36:04;;;;;;;6.13;3.40;;;17.00;99.90;;;;;;5021147;28;20054;-80
2021/07/30 02:38:34;;;;;;;7.03;3.45;;;17.00;99.90;;;;;;5029135;28;20046;-79
2021/07/30 02:41:01;;;;;;;5.75;3.70;;;17.00;99.90;;;;;;5021528;28;20081;-76
2021/07/30 02:43:28;;;;;;;6.35;3.50;;;17.00;99.90;;;;;;5017673;28;20045;-78
2021/07/30 02:45:55;;;;;;;5.72;3.50;;;16.90;99.90;;;;;;5035649;28;20065;-78
2021/07/30 02:48:22;;;;;;;5.95;3.58;;;17.00;99.90;;;;;;5035113;28;20072;-79
2021/07/30 02:50:52;;;;;;;5.32;3.10;;;16.90;99.90;;;;;;5025111;28;20080;-79
2021/07/30 02:53:19;;;;;;;5.55;3.42;;;16.90;99.90;;;;;;5031143;28;20114;-80
2021/07/30 02:55:46;;;;;;;5.50;3.40;;;16.90;99.90;;;;;;5035056;28;20140;-78
2021/07/30 02:58:13;;;;;;;5.00;3.15;;;16.90;99.90;;;;;;5028292;28;20128;-77
2021/07/30 03:00:41;;;;;;;7.22;3.40;;;17.00;99.90;;;;;;5022570;28;20128;-78
2021/07/30 03:03:08;;;;;;;5.80;3.42;;;17.00;99.70;;;;;;5033227;28;20132;-79
2021/07/30 03:05:35;;;;;;;6.50;3.55;;;16.90;99.50;;;;;;5033315;28;20510;-80
2021/07/30 03:08:04;;;;;;;8.65;3.10;;;16.90;99.60;;;;;;5029386;28;20129;-79
2021/07/30 03:10:31;;;;;;;6.10;3.40;;;16.80;99.60;;;;;;5023653;28;20466;-78
2021/07/30 03:12:58;;;;;;;5.10;3.50;;;16.80;99.70;;;;;;5025563;28;20056;-78
2021/07/30 03:15:25;;;;;;;5.18;3.20;;;16.80;99.70;;;;;;5036003;28;20081;-77
2021/07/30 03:17:52;;;;;;;4.95;3.10;;;16.80;99.70;;;;;;5033195;28;20486;-76
2021/07/30 03:20:19;;;;;;;5.18;3.15;;;16.80;99.70;;;;;;5030048;28;20068;-76
2021/07/30 03:22:46;;;;;;;4.40;2.90;;;16.90;99.80;;;;;;5030932;28;20437;-77
2021/07/30 03:25:15;;;;;;;5.50;3.45;;;16.90;99.80;;;;;;5024036;28;20046;-76
2021/07/30 03:27:42;;;;;;;6.20;3.55;;;16.90;99.60;;;;;;5029373;28;20132;-77
2021/07/30 03:30:11;;;;;;;4.93;3.17;;;16.90;99.40;;;;;;5021241;28;20054;-78
2021/07/30 03:32:39;;;;;;;5.57;3.30;;;16.80;99.50;;;;;;5023524;28;20136;-78
2021/07/30 03:35:07;;;;;;;4.95;3.00;;;16.90;99.50;;;;;;5023251;28;20049;-77
2021/07/30 03:37:34;;;;;;;5.63;3.47;;;16.90;99.60;;;;;;5022043;28;20148;-81
2021/07/30 03:40:01;;;;;;;5.40;3.40;;;16.80;99.50;;;;;;5028011;28;20052;-80
2021/07/30 03:42:29;;;;;;;6.18;3.20;;;16.80;99.50;;;;;;5030433;28;20137;-79
2021/07/30 03:44:56;;;;;;;6.72;2.92;;;16.80;99.40;;;;;;5021755;28;20057;-78
2021/07/30 03:47:23;;;;;;;7.05;3.42;;;16.80;99.10;;;;;;5024466;28;20062;-81
2021/07/30 03:49:50;;;;;;;4.80;2.90;;;16.80;99.50;;;;;;5031989;28;20144;-77
2021/07/30 03:52:18;;;;;;;5.38;3.30;;;16.80;99.20;;;;;;5025724;28;20053;-78
2021/07/30 03:54:45;;;;;;;6.90;3.30;;;16.70;99.20;;;;;;5025933;28;20056;-79
2021/07/30 03:57:13;;;;;;;6.53;3.38;;;16.70;99.10;;;;;;5017482;28;20081;-80
2021/07/30 03:59:41;;;;;;;7.55;3.50;;;16.60;98.30;;;;;;5027997;28;20038;-76
2021/07/30 04:02:08;;;;;;;6.22;3.53;;;16.60;98.60;;;;;;5021564;28;20053;-80
2021/07/30 04:04:35;;;;;;;5.78;3.15;;;16.40;98.80;;;;;;5019317;28;20042;-78
2021/07/30 04:07:02;;;;;;;5.65;3.22;;;16.30;99.00;;;;;;5031063;28;20045;-80
2021/07/30 04:09:30;;;;;;;6.72;3.25;;;16.20;99.50;;;;;;5026551;28;20038;-78
2021/07/30 04:11:56;;;;;;;6.20;3.33;;;16.10;99.80;;;;;;5028557;28;20069;-80
2021/07/30 04:14:23;;;;;;;5.78;3.33;;;16.10;99.90;;;;;;5018516;28;20380;-79
2021/07/30 04:16:52;;;;;;;6.18;3.60;;;16.20;99.90;;;;;;5030777;28;20132;-77
2021/07/30 04:19:19;;;;;;;5.00;3.15;;;16.20;99.90;;;;;;5028083;28;20450;-79
2021/07/30 04:21:46;;;;;;;5.15;3.40;;;16.20;99.90;;;;;;5029067;28;20125;-77
2021/07/30 04:24:13;;;;;;;4.93;3.30;;;16.20;99.90;;;;;;5028703;28;20049;-77
2021/07/30 04:26:40;;;;;;;6.20;3.10;;;16.20;99.90;;;;;;5032468;28;20080;-78
2021/07/30 04:29:07;;;;;;;5.38;3.13;;;16.30;99.90;;;;;;5036953;28;20109;-78
2021/07/30 04:31:38;;;;;;;5.60;3.20;;;16.30;99.90;;;;;;5017538;28;20113;-77
2021/07/30 04:34:07;;;;;;;4.53;2.80;;;16.30;99.90;;;;;;5025160;28;20465;-79
2021/07/30 04:36:34;;;;;;;6.70;3.60;;;16.30;99.80;;;;;;5036653;28;20582;-76
2021/07/30 04:39:01;;;;;;;5.10;3.10;;;16.30;99.50;;;;;;5040970;28;20072;-78
2021/07/30 04:41:28;;;;;;;5.93;3.30;;;16.40;99.50;;;;;;5036180;28;20125;-77
2021/07/30 04:43:55;;;;;;;6.97;3.30;;;16.30;99.40;;;;;;5034967;28;20128;-77
2021/07/30 04:46:22;;;;;;;5.85;3.67;;;16.30;99.30;;;;;;5035181;28;20132;-77
2021/07/30 04:48:49;;;;;;;5.70;3.60;;;16.20;99.50;;;;;;5027144;28;20591;-76
2021/07/30 04:51:18;;;;;;;6.32;3.38;;;16.20;99.40;;;;;;5015480;28;20137;-79
2021/07/30 04:53:46;;;;;;;6.45;3.70;;;16.10;99.50;;;;;;5015101;28;20113;-79
2021/07/30 04:56:19;;;;;;;5.25;3.30;;;16.00;99.90;;;;;;5014806;28;20054;-79
2021/07/30 04:58:46;;;;;;;5.10;3.13;;;15.90;99.90;;;;;;5020675;28;20048;-77
2021/07/30 05:01:13;;;;;;;5.38;3.17;;;16.00;99.90;;;;;;5019826;28;20463;-79
2021/07/30 05:03:40;;;;;;;5.03;3.45;;;16.00;99.90;;;;;;5016191;28;20068;-77
2021/07/30 05:06:15;;;;;;;4.95;3.70;;;16.00;99.90;;;;;;5015152;28;20132;-79
2021/07/30 05:08:43;;;;;;;8.65;4.15;;;16.10;99.90;;;;;;5015279;28;20117;-80
2021/07/30 05:11:11;;;;;;;5.68;3.42;;;16.10;99.90;;;;;;5014472;28;20046;-77
2021/07/30 05:13:39;;;;;;;5.72;3.50;;;16.20;99.90;;;;;;5014381;28;20042;-79
2021/07/30 05:16:08;;;;;;;5.82;3.85;;;16.20;99.90;;;;;;5015000;28;20050;-78
2021/07/30 05:18:35;;;;;;;6.60;4.50;;;16.20;99.90;;;;;;5015779;28;20046;-78
2021/07/30 05:21:05;;;;;;;8.30;4.28;;;16.20;99.90;;;;;;5015090;28;20125;-77
2021/07/30 05:23:32;;;;;;;7.35;3.80;;;16.20;99.90;;;;;;5014448;28;20138;-78
2021/07/30 05:26:01;;;;;;;6.20;4.13;;;16.20;99.90;;;;;;5014177;28;20078;-79
2021/07/30 05:28:29;;;;;;;6.18;4.22;;;16.30;99.90;;;;;;5023275;28;20124;-78
2021/07/30 05:30:57;;;;;;;9.90;4.53;;;16.30;99.90;;;;;;5034255;28;20075;-78
2021/07/30 05:33:25;;;;;;;7.68;4.60;;;16.40;99.90;;;;;;5034370;28;20046;-79
2021/07/30 05:35:53;;;;;;;6.57;4.15;;;16.40;99.90;;;;;;5025528;28;20066;-77
2021/07/30 05:38:20;;;;;;;7.85;4.05;;;16.30;99.90;;;;;;5026671;28;20077;-78
2021/07/30 05:40:48;;;;;;;8.07;4.40;;;16.30;99.90;;;;;;5015049;28;20133;-78
2021/07/30 05:43:16;;;;;;;8.07;4.80;;;16.40;99.90;;;;;;5014526;28;20509;-78
2021/07/30 05:45:43;;;;;;;7.50;4.15;;;16.40;99.90;;;;;;5014479;28;20154;-79
2021/07/30 05:48:10;;;;;;;6.78;4.30;;;16.40;99.90;;;;;;5014433;28;20129;-77
2021/07/30 05:50:38;;;;;;;7.22;3.55;;;16.40;99.90;;;;;;5027488;28;20077;-76
2021/07/30 05:53:05;;;;;;;5.95;3.75;;;16.50;99.90;;;;;;5033726;28;20049;-80
2021/07/30 05:55:32;;;;;;;10.23;4.55;;;16.50;99.90;;;;;;5033553;28;20132;-79
2021/07/30 05:57:59;;;;;;;7.13;4.20;;;16.60;99.90;;;;;;5034125;28;20133;-78
2021/07/30 06:00:27;;;;;;;9.18;4.55;;;16.60;99.90;;;;;;5033805;28;20045;-77
2021/07/30 06:02:54;;;;;;;7.25;4.35;;;16.60;99.90;;;;;;5034238;28;20132;-79
2021/07/30 06:05:21;;;;;;;6.47;4.30;;;16.70;99.90;;;;;;5032124;28;20045;-78
2021/07/30 06:07:48;;;;;;;7.85;3.90;;;16.70;99.90;;;;;;5033607;28;20050;-76
2021/07/30 06:10:16;;;;;;;7.72;4.15;;;16.70;99.90;;;;;;5033732;28;20136;-78
2021/07/30 06:12:43;;;;;;;6.68;4.10;;;16.80;99.90;;;;;;5033725;28;20047;-78
2021/07/30 06:15:11;;;;;;;6.45;4.05;;;16.80;99.90;;;;;;5033600;28;20049;-79
2021/07/30 06:17:39;;;;;;;7.93;4.47;;;16.80;99.90;;;;;;5033355;28;20135;-79
2021/07/30 06:20:09;;;;;;;6.72;4.15;;;16.90;99.90;;;;;;5020140;28;20451;-77
2021/07/30 06:22:37;;;;;;;5.32;3.50;;;17.00;99.90;;;;;;5013447;28;20050;-79
2021/07/30 06:25:06;;;;;;;6.13;3.72;;;17.00;99.90;;;;;;5013949;28;20049;-78
2021/07/30 06:27:35;;;;;;;6.85;4.20;;;17.20;99.90;;;;;;5013694;28;20133;-76
2021/07/30 06:30:02;;;;;;;6.55;3.92;;;17.20;99.90;;;;;;5013779;28;20048;-79
2021/07/30 06:32:29;;;;;;;9.00;4.30;;;17.30;99.90;;;;;;5027351;28;20060;-76
2021/07/30 06:34:57;;;;;;;7.43;4.20;;;17.40;99.90;;;;;;5038435;28;20567;-79
2021/07/30 06:37:24;;;;;;;7.55;4.47;;;17.40;99.90;;;;;;5033597;28;20511;-77
2021/07/30 06:39:51;;;;;;;7.32;4.20;;;17.40;99.90;;;;;;5040036;28;20144;-78
2021/07/30 06:42:18;;;;;;;8.30;4.13;;;17.40;99.90;;;;;;5045517;28;20106;-78
2021/07/30 06:44:48;;;;;;;6.95;4.22;;;17.50;99.90;;;;;;5048116;28;20129;-78
2021/07/30 06:47:15;;;;;;;7.88;4.07;;;17.50;99.90;;;;;;5033349;28;20045;-79
2021/07/30 06:49:42;;;;;;;6.35;4.05;;;17.60;99.90;;;;;;5019952;28;20064;-79
2021/07/30 06:52:10;;;;;;;6.90;4.22;;;17.60;99.90;;;;;;5020169;28;20052;-79
2021/07/30 06:54:37;;;;;;;8.35;4.47;;;17.60;99.90;;;;;;5020318;28;20128;-79
2021/07/30 06:57:05;;;;;;;5.72;3.72;;;17.70;99.90;;;;;;5020128;28;20440;-79
2021/07/30 06:59:32;;;;;;;6.40;3.80;;;17.80;99.90;;;;;;5020581;28;20052;-80
2021/07/30 07:02:02;;;;;;;6.07;3.63;;;17.80;99.90;;;;;;5026684;28;20128;-78
2021/07/30 07:04:29;;;;;;;8.05;3.80;;;17.90;99.90;;;;;;5040229;28;20056;-78
2021/07/30 07:06:57;;;;;;;6.80;3.67;;;18.00;99.90;;;;;;5040025;28;20384;-78
2021/07/30 07:09:25;;;;;;;5.60;3.70;;;18.10;99.90;;;;;;5039966;28;20052;-79
2021/07/30 07:11:52;;;;;;;7.68;4.32;;;18.10;99.90;;;;;;5039625;28;20052;-78
2021/07/30 07:14:20;;;;;;;6.97;4.00;;;18.20;99.90;;;;;;5039586;28;20045;-79
2021/07/30 07:16:47;;;;;;;6.00;3.58;;;18.30;99.90;;;;;;5032882;28;20403;-79
2021/07/30 07:19:14;;;;;;;8.23;4.07;;;18.40;99.90;;;;;;5019465;28;20129;-79
2021/07/30 07:21:41;;;;;;;6.20;4.13;;;18.40;99.90;;;;;;5019728;28;20050;-79
2021/07/30 07:24:09;;;;;;;6.50;3.55;;;18.40;99.90;;;;;;5019636;28;20060;-77
2021/07/30 07:26:39;;;;;;;5.70;3.30;;;18.50;99.90;;;;;;5019709;28;20053;-80
2021/07/30 07:29:07;;;;;;;7.03;3.80;;;18.60;99.90;;;;;;5020550;28;20048;-79
2021/07/30 07:31:34;;;;;;;6.22;3.85;;;18.70;99.90;;;;;;5025884;28;20047;-77
2021/07/30 07:34:01;;;;;;;5.68;3.65;;;18.80;99.90;;;;;;5039502;28;20060;-77
2021/07/30 07:36:29;;;;;;;6.03;3.88;;;18.90;99.90;;;;;;5039458;28;20172;-79
2021/07/30 07:38:56;;;;;;;6.25;4.30;;;18.90;99.90;;;;;;5039317;28;20053;-79
2021/07/30 07:41:24;;;;;;;6.50;3.78;;;19.00;99.90;;;;;;5039470;28;20158;-77
2021/07/30 07:43:53;;;;;;;6.38;3.50;;;19.10;99.90;;;;;;5037642;28;20092;-76
2021/07/30 07:46:20;;;;;;;5.80;3.55;;;19.20;99.70;;;;;;5038873;28;20057;-78
2021/07/30 07:48:47;;;;;;;5.57;3.65;;;19.30;99.70;;;;;;5038493;28;20426;-79
2021/07/30 07:51:14;;;;;;;5.03;3.25;;;19.40;99.50;;;;;;5036005;28;20053;-80
2021/07/30 07:53:41;;;;;;;5.65;3.40;;;19.50;99.40;;;;;;5035987;28;20060;-79
2021/07/30 07:56:09;;;;;;;6.03;3.55;;;19.60;99.20;;;;;;5036314;28;20139;-77
2021/07/30 07:58:36;;;;;;;5.38;3.47;;;19.70;99.00;;;;;;5034122;28;20053;-80
2021/07/30 08:01:05;;;;;;;6.50;3.90;;;19.80;98.80;;;;;;5036293;28;20128;-79
2021/07/30 08:03:32;;;;;;;6.60;3.60;;;19.90;98.80;;;;;;5036267;28;20498;-78
2021/07/30 08:05:59;;;;;;;6.18;3.72;;;20.00;98.80;;;;;;5035959;28;20049;-77
2021/07/30 08:08:26;;;;;;;5.82;3.60;;;20.00;98.70;;;;;;5036028;28;20453;-79
2021/07/30 08:10:53;;;;;;;5.95;3.83;;;20.10;98.50;;;;;;5036080;28;20072;-80
2021/07/30 08:13:20;;;;;;;6.18;3.70;;;20.20;98.30;;;;;;5033914;28;20049;-79
2021/07/30 08:15:47;;;;;;;4.57;2.97;;;20.30;98.20;;;;;;5035663;28;20132;-80
2021/07/30 08:18:15;;;;;;;6.55;3.25;;;20.40;98.10;;;;;;5035307;28;20140;-79
2021/07/30 08:20:42;;;;;;;8.40;4.60;;;20.40;98.00;;;;;;5035399;28;20057;-79
2021/07/30 08:23:09;;;;;;;6.38;3.80;;;20.50;97.90;;;;;;5035313;28;20057;-79
2021/07/30 08:25:36;;;;;;;5.70;3.08;;;20.60;97.90;;;;;;5043725;28;20145;-79
2021/07/30 08:28:05;;;;;;;6.22;3.90;;;20.60;97.80;;;;;;5042007;28;20084;-79
2021/07/30 08:30:32;;;;;;;6.00;3.40;;;20.70;97.80;;;;;;5015592;28;20428;-80
2021/07/30 08:32:59;;;;;;;6.05;3.22;;;20.80;97.80;;;;;;5036364;28;20110;-77
2021/07/30 08:35:28;;;;;;;6.25;3.60;;;20.90;97.80;;;;;;5042860;28;20128;-78
2021/07/30 08:37:55;;;;;;;6.60;4.10;;;21.00;97.50;;;;;;5046640;28;20053;-76
2021/07/30 08:40:22;;;;;;;6.22;4.03;;;21.10;96.40;;;;;;5038344;28;20128;-80
2021/07/30 08:42:50;;;;;;;5.10;3.40;;;21.20;95.70;;;;;;5034923;28;20049;-80
2021/07/30 08:45:18;;;;;;;5.75;3.35;;;21.30;95.30;;;;;;5036391;28;20467;-77
2021/07/30 08:47:45;;;;;;;5.95;3.50;;;21.40;95.00;;;;;;5029647;28;20558;-76
2021/07/30 08:50:14;;;;;;;6.38;3.95;;;21.50;94.70;;;;;;5015571;28;20046;-79
2021/07/30 08:52:45;;;;;;;6.22;3.97;;;21.60;93.70;;;;;;5022172;28;20042;-78
2021/07/30 08:55:15;;;;;;;5.63;3.83;;;21.60;93.00;;;;;;5034883;28;20136;-79
2021/07/30 08:57:48;;;;;;;8.32;4.38;;;21.70;93.20;;;;;;5036088;28;20056;-76
2021/07/30 09:00:17;;;;;;;5.80;3.60;;;21.80;92.40;;;;;;5035496;28;20056;-79
2021/07/30 09:02:44;;;;;;;6.55;4.18;;;21.90;92.20;;;;;;5035296;28;20046;-77
2021/07/30 09:05:31;;;;;;;6.25;3.70;;;22.00;92.00;;;;;;5035269;28;20119;-79
2021/07/30 09:08:01;;;;;;;8.27;3.85;;;22.10;91.90;;;;;;5035004;28;20100;-79
2021/07/30 09:10:31;;;;;;;5.70;3.88;;;22.20;91.40;;;;;;5034613;28;20554;-78
2021/07/30 09:13:32;;;;;;;5.75;4.03;;;22.30;91.20;;;;;;5034257;28;20133;-77
2021/07/30 09:16:06;;;;;;;6.38;4.20;;;22.40;90.50;;;;;;5037184;28;20046;-76
2021/07/30 09:18:37;;;;;;;5.35;3.50;;;22.40;90.50;;;;;;5036217;28;20136;-79
2021/07/30 09:21:24;;;;;;;6.22;4.00;;;22.50;90.70;;;;;;5034456;28;20136;-79
2021/07/30 09:23:56;;;;;;;6.20;3.60;;;22.70;90.40;;;;;;5033184;28;20080;-77
2021/07/30 09:26:36;;;;;;;6.20;3.70;;;22.70;90.00;;;;;;5015217;28;20455;-80
2021/07/30 09:29:06;;;;;;;6.47;4.10;;;22.80;90.10;;;;;;5025551;28;20096;-80
2021/07/30 09:31:56;;;;;;;5.65;3.60;;;22.90;88.30;;;;;;5028076;28;20129;-80
2021/07/30 09:34:26;;;;;;;6.20;4.00;;;22.90;87.90;;;;;;5030656;28;20133;-80
2021/07/30 09:36:56;;;;;;;7.15;4.07;;;22.90;89.10;;;;;;5031396;28;20068;-78
2021/07/30 09:39:28;;;;;;;6.35;3.58;;;23.00;89.10;;;;;;5027132;28;20137;-80
2021/07/30 09:42:05;;;;;;;6.03;4.00;;;23.10;88.50;;;;;;5030850;28;20479;-79
2021/07/30 09:44:34;;;;;;;6.57;3.85;;;23.10;88.40;;;;;;5018294;28;20536;-79
2021/07/30 09:47:13;;;;;;;7.22;4.53;;;23.20;88.40;;;;;;5033790;28;20146;-79
2021/07/30 09:49:47;;;;;;;6.60;4.22;;;23.30;86.90;;;;;;5019682;28;20571;-80
2021/07/30 09:52:17;;;;;;;6.05;4.38;;;23.30;86.90;;;;;;5030623;28;20084;-80
2021/07/30 09:54:51;;;;;;;6.85;4.20;;;23.30;86.90;;;;;;5022193;28;20101;-78
2021/07/30 09:57:21;;;;;;;6.18;4.30;;;23.40;87.20;;;;;;5022067;28;20565;-79
2021/07/30 09:59:49;;;;;;;9.05;4.80;;;23.40;88.40;;;;;;5025623;28;20477;-79
2021/07/30 10:02:20;;;;;;;6.70;4.38;;;23.50;87.30;;;;;;5024939;28;20105;-81
2021/07/30 10:04:50;;;;;;;5.63;3.88;;;23.50;87.10;;;;;;5029660;28;20133;-78
2021/07/30 10:07:20;;;;;;;5.95;3.88;;;23.60;87.30;;;;;;5025036;28;20072;-79
2021/07/30 10:10:02;;;;;;;5.97;4.00;;;23.70;87.10;;;;;;5026165;28;20045;-78
2021/07/30 10:12:31;;;;;;;6.18;4.03;;;23.80;86.90;;;;;;5025226;28;20091;-79
2021/07/30 10:15:00;;;;;;;5.20;3.60;;;23.80;86.90;;;;;;5017686;28;20488;-76
2021/07/30 10:17:30;;;;;;;4.35;3.10;;;23.90;86.80;;;;;;5017864;28;20068;-80
2021/07/30 10:20:01;;;;;;;6.18;4.45;;;24.00;86.40;;;;;;5025039;28;20052;-79
2021/07/30 10:22:37;;;;;;;7.07;4.20;;;24.00;84.80;;;;;;5016012;28;20042;-78
2021/07/30 10:25:08;;;;;;;5.35;3.90;;;24.10;84.30;;;;;;5022319;28;21254;-79
2021/07/30 10:27:41;;;;;;;6.50;4.22;;;24.10;85.40;;;;;;5013148;28;20096;-78
2021/07/30 10:30:13;;;;;;;6.60;4.47;;;24.20;85.40;;;;;;5014355;28;20125;-78
2021/07/30 10:32:57;;;;;;;5.90;4.40;;;24.20;85.10;;;;;;5013380;28;20124;-78
2021/07/30 10:35:46;;;;;;;;;;;24.30;84.90;;;;;;5013418;28;20081;-75
2021/07/30 10:38:19;;;;;;;6.38;4.00;;;24.40;84.10;;;;;;5012586;28;19933;-77
2021/07/30 10:41:15;;;;;;;5.80;3.92;;;24.40;84.30;;;;;;5012885;28;20046;-76
2021/07/30 10:44:06;;;;;;;7.43;4.95;;;24.50;84.10;;;;;;5013688;28;20062;-77
2021/07/30 10:46:34;;;;;;;7.05;4.10;;;24.50;83.40;;;;;;5013166;28;20446;-75
2021/07/30 10:49:01;;;;;;;6.15;4.30;;;24.60;83.50;;;;;;5013068;28;20085;-75
2021/07/30 10:51:29;;;;;;;5.95;4.00;;;24.60;82.60;;;;;;5013741;28;20129;-76
2021/07/30 10:53:58;;;;;;;5.68;4.10;;;24.60;82.70;;;;;;5013565;28;20053;-80
2021/07/30 10:56:48;;;;;;;8.10;4.53;;;24.70;83.30;;;;;;5014137;28;20108;-84
2021/07/30 10:59:18;;;;;;;6.13;3.58;;;24.80;83.10;;;;;;5014760;28;20145;-76
2021/07/30 11:01:59;;;;;;;9.05;4.80;;;24.80;82.60;;;;;;5029359;28;20050;-76
2021/07/30 11:04:28;;;;;;;6.13;3.90;;;24.90;83.50;;;;;;5034443;28;20045;-78
2021/07/30 11:07:00;;;;;;;7.38;4.45;;;25.00;82.50;;;;;;5033462;28;20133;-77
2021/07/30 11:09:37;;;;;;;5.88;3.90;;;25.00;82.00;;;;;;5032963;28;20068;-77
2021/07/30 11:12:12;;;;;;;6.30;4.60;;;25.10;82.30;;;;;;5034212;28;20053;-74
2021/07/30 11:14:42;;;;;;;13.20;5.00;;;25.10;81.20;;;;;;5033780;28;20045;-82
2021/07/30 11:17:11;;;;;;;10.48;4.75;;;25.20;81.80;;;;;;5036658;28;20054;-78
2021/07/30 11:19:39;;;;;;;7.82;4.70;;;25.30;82.00;;;;;;5032732;28;20055;-80
2021/07/30 11:22:09;;;;;;;6.38;3.85;;;25.40;81.70;;;;;;5032905;28;20582;-80
2021/07/30 11:24:41;;;;;;;5.00;3.88;;;25.50;81.50;;;;;;5035267;28;20077;-74
2021/07/30 11:27:13;;;;;;;6.88;4.82;;;25.60;80.70;;;;;;5036577;28;20059;-77
2021/07/30 11:29:44;;;;;;;7.18;4.70;;;25.70;79.70;;;;;;5034810;28;20399;-75
2021/07/30 11:32:14;;;;;;;6.88;4.10;;;25.70;80.40;;;;;;5036020;28;20046;-77
2021/07/30 11:34:43;;;;;;;8.70;4.45;;;25.80;81.30;;;;;;5036067;28;20045;-77
2021/07/30 11:37:12;;;;;;;6.88;4.32;;;25.90;81.10;;;;;;5036400;28;20535;-76
2021/07/30 11:39:43;;;;;;;6.10;4.00;;;25.90;79.30;;;;;;5036217;28;20136;-75
2021/07/30 11:42:12;;;;;;;6.30;3.97;;;25.90;78.70;;;;;;5036214;28;20137;-74
2021/07/30 11:44:47;;;;;;;5.10;3.70;;;25.80;78.90;;;;;;5034330;28;20045;-76
2021/07/30 11:47:16;;;;;;;5.45;3.95;;;25.80;78.40;;;;;;5035882;28;20045;-74
2021/07/30 11:49:44;;;;;;;5.47;3.70;;;25.90;78.90;;;;;;5029398;28;20108;-76
2021/07/30 11:52:19;;;;;;;7.30;4.10;;;25.90;78.60;;;;;;5027682;28;20046;-76
2021/07/30 11:54:46;;;;;;;6.57;4.40;;;25.90;78.00;;;;;;5031534;28;20472;-83
2021/07/30 11:57:26;;;;;;;5.85;4.28;;;25.80;77.70;;;;;;5014714;28;20049;-81
2021/07/30 11:59:53;;;;;;;6.15;4.07;;;25.80;77.10;;;;;;5032760;28;20046;-81
2021/07/30 12:02:20;;;;;;;5.50;4.00;;;25.70;77.10;;;;;;5023572;28;20137;-79
2021/07/30 12:04:51;;;;;;;6.60;4.40;;;25.70;78.20;;;;;;5024385;28;20048;-77
2021/07/30 12:07:22;;;;;;;6.28;4.22;;;25.70;78.60;;;;;;5022413;28;20045;-80
2021/07/30 12:09:54;;;;;;;5.47;3.75;;;25.70;77.80;;;;;;5025599;28;20148;-79
2021/07/30 12:12:23;;;;;;;6.45;4.38;;;25.70;77.90;;;;;;5025884;28;20052;-80
2021/07/30 12:14:52;;;;;;;6.28;4.55;;;25.80;78.10;;;;;;5017877;28;20056;-80
2021/07/30 12:17:20;;;;;;;6.78;4.60;;;25.90;77.80;;;;;;5022664;28;20050;-77
2021/07/30 12:19:58;;;;;;;7.72;4.40;;;25.90;77.80;;;;;;5021327;28;20141;-79
2021/07/30 12:22:37;;;;;;;6.68;4.70;;;25.90;77.60;;;;;;5026876;28;20057;-78
2021/07/30 12:25:06;;;;;;;5.82;4.55;;;26.00;77.70;;;;;;5024048;28;20137;-77
2021/07/30 12:27:35;;;;;;;5.63;4.18;;;26.00;77.30;;;;;;5019171;28;20053;-76
2021/07/30 12:30:02;;;;;;;5.38;3.95;;;26.20;77.70;;;;;;5020685;28;20132;-79
2021/07/30 12:32:39;;;;;;;6.68;5.10;;;26.30;77.70;;;;;;5025929;28;20054;-79
2021/07/30 12:35:11;;;;;;;6.50;4.78;;;26.40;77.30;;;;;;5022169;28;20057;-80
2021/07/30 12:38:01;;;;;;;7.10;4.90;;;26.50;76.20;;;;;;5022170;28;20053;-78
2021/07/30 12:40:30;;;;;;;5.78;4.30;;;26.50;75.30;;;;;;5025751;28;20389;-78
2021/07/30 12:43:12;;;;;;;5.78;4.50;;;26.50;75.80;;;;;;5024253;28;20152;-79
2021/07/30 12:45:40;;;;;;;6.53;4.88;;;26.50;74.90;;;;;;5021310;28;20049;-79
2021/07/30 12:48:08;;;;;;;5.85;4.32;;;26.60;75.40;;;;;;5030254;28;20053;-79
2021/07/30 12:50:38;;;;;;;5.95;4.43;;;26.60;75.30;;;;;;5019779;28;20044;-77
2021/07/30 12:53:17;;;;;;;6.93;4.70;;;26.70;75.20;;;;;;5020274;28;20053;-79
2021/07/30 12:56:03;;;;;;;6.30;4.75;;;26.80;75.40;;;;;;5017313;28;20060;-78
2021/07/30 12:58:31;;;;;;;5.80;4.43;;;26.80;74.90;;;;;;5018983;28;20046;-77
2021/07/30 13:01:00;;;;;;;5.70;4.25;;;26.80;74.30;;;;;;5019365;28;20052;-78